Tiempo atmosférico en la estación meteorológica de Candelaria, Santa Cruz de Tenerife (463 m.)



Fecha
DESCASC
Temp. máxima en grados centígrados (hora)
DESCASC
Temp. mínima en grados centígrados (hora)
DESCASC
Temp. media en grados centígrados
DESCASC
Racha de viento máxima en m/sg (hora)
DESCASC
Velocidad máxima media en intervalos de 10 minutos(hora)
DESCASC
Precipitaciones diarias en mm
DESCASC
Precipitaciones de 00:00 a 06:00 en mm
DESCASC
Precipitaciones de 06:00 a 12:00 en mm
DESCASC
Precipitaciones de 12:00 a 18:00 en mm
DESCASC
Precipitaciones de 18:00 a 24:00 en mm
DESCASC
05-04-2020 21.2 (15:20) 13.2 (07:30) 17.2 5.28 (15:10) 3.61 (05:20) 0 0 0 0 0
04-04-2020 20.4 (14:00) 13 (07:50) 16.7 5.83 (12:30) 3.89 (06:00) 0 0 0 0 0
03-04-2020 17 (16:10) 12.1 (07:20) 14.6 8.61 (15:10) 5.56 (13:40) 0 0 0 0 0
02-04-2020 18.2 (12:50) 10 (00:00) 14.1 6.67 (12:50) 4.44 (12:50) 0.2 0.2 0 0 0
01-04-2020 17.2 (11:50) 11.5 (00:00) 14.4 4.44 (06:00) 3.33 (06:00) 0.2 0 0 0 0.2
31-03-2020 18 (11:00) 12.5 (00:00) 15.3 5 (13:20) 3.89 (07:30) 0 0 0 0 0
30-03-2020 17.8 (12:00) 10.5 (00:00) 14.1 6.94 (16:00) 4.44 (16:00) 0 0 0 0 0
29-03-2020 15.8 (11:30) 10.2 (00:00) 13 5 (06:00) 4.17 (06:40) 0 0 0 0 0
28-03-2020 17.6 (10:40) 11.9 (00:00) 14.8 13.61 (01:30) 8.89 (01:20) 7.4 0 0 0 7.4
27-03-2020 16.7 (11:50) 12 (00:00) 14.4 9.17 (23:10) 5.28 (20:40) 6.8 0 0 0.4 6.4
26-03-2020 15.8 (13:30) 9.6 (00:00) 12.7 5.83 (13:00) 4.44 (06:10) 0 0 0 0 0
25-03-2020 17.3 (10:50) 10.3 (00:00) 13.8 6.94 (00:10) 4.72 (00:10) 7.2 0 0 6.4 0.8
24-03-2020 19.2 (11:20) 13 (00:00) 16.1 15 (22:00) 8.06 (22:20) 1 0.8 0.2 0 0
23-03-2020 15.2 (11:40) 10 (00:00) 12.6 26.94 (08:40) 15 (07:10) 42.2 16.4 21.4 2.6 1.8
22-03-2020 17.5 (11:30) 10.9 (04:20) 14.2 21.11 (21:40) 12.78 (21:10) 14.2 0 0 5.8 8.4
21-03-2020 20 (14:40) 10.4 (00:00) 15.2 -- (--) -- (--) 0 0 0 0 0
20-03-2020 22.3 (14:40) 13.6 (00:00) 17.9 17.22 (08:40) 10.83 (08:30) 0 0 0 0 0
19-03-2020 20 (14:30) 14.5 (00:00) 17.3 18.89 (01:40) 8.33 (01:40) 0 0 0 0 0
18-03-2020 20.1 (13:20) 11.6 (00:00) 15.9 19.44 (15:20) 10 (15:30) 0 0 0 0 0
17-03-2020 18.7 (14:30) 10.9 (00:00) 14.8 16.67 (12:00) 11.39 (12:00) 0 0 0 0 0
16-03-2020 20.8 (13:50) 13.4 (00:00) 17.1 19.17 (14:00) 10.83 (15:30) 0 0 0 0 0
15-03-2020 19.3 (12:00) 11.6 (00:00) 15.4 21.11 (16:40) 11.67 (16:10) 0 0 0 0 0
14-03-2020 20.1 (11:40) 11.4 (00:00) 15.8 13.89 (22:50) 8.33 (12:20) 0 0 0 0 0
13-03-2020 18.4 (12:30) 11.1 (06:20) 14.8 8.61 (12:30) 5.83 (12:30) 0 0 0 0 0
12-03-2020 25.5 (11:50) 13.4 (00:00) 19.4 6.94 (00:50) 5.83 (00:50) 0 0 0 0 0
11-03-2020 22.1 (10:30) 11.3 (00:00) 16.7 6.67 (23:59) 5.56 (23:59) 0 0 0 0 0

Gráficas

Temp. máximas Temp. mínimas Temp. medias Precipitaciones Rachas de viento máximas Velocidades máximas media en intervalos de 10 minutos

Datos horarios

Fecha y hora oficial Temperatura (ºC) Velocidad del viento (km/h) Dirección del viento Racha (km/h) Dirección de racha Precipitación (mm) Presión (hPa) Tendencia (hPa) Humedad (%)
2020-04-09 23:00:00 -- -- -- -- -- -- -- -- --
2020-04-09 22:00:00 -- -- -- -- -- -- -- -- --
2020-04-09 21:00:00 17.8 3 Norte 19 Noroeste 0 -- -- 86
2020-04-09 20:00:00 18 12 Oeste 15 Noroeste 0 -- -- 89
2020-04-09 19:00:00 18.2 4 Sudoeste 14 Sur 0 -- -- 90
2020-04-09 18:00:00 18.1 9 Sudeste 15 Sudeste 0 -- -- 90
2020-04-09 17:00:00 18.6 12 Sudeste 19 Sur 0 -- -- 87
2020-04-09 16:00:00 20.8 9 Sur 25 Sudoeste 0 -- -- 76
2020-04-09 15:00:00 22.6 15 Oeste 30 Oeste 0 -- -- 68
2020-04-09 14:00:00 24 15 Oeste 30 Oeste 0 -- -- 62
2020-04-09 13:00:00 23.4 13 Oeste 23 Sudoeste 0 -- -- 62
2020-04-09 12:00:00 22.1 12 Oeste 22 Sudoeste 0 -- -- 69
2020-04-09 11:00:00 21.3 12 Sudoeste 18 Sudoeste 0 -- -- 69
2020-04-09 10:00:00 20.7 6 Sudoeste 11 Oeste 0 -- -- 68
2020-04-09 09:00:00 18.5 4 Oeste 13 Noroeste 0 -- -- 75
2020-04-09 08:00:00 15.6 6 Norte 11 Norte 0 -- -- 78
2020-04-09 07:00:00 15.9 7 Noroeste 11 Noroeste 0 -- -- 77
2020-04-09 06:00:00 15.5 5 Noroeste 9 Noroeste 0 -- -- 80
2020-04-09 05:00:00 16.2 8 Noroeste 13 Noroeste 0 -- -- 78
2020-04-09 04:00:00 16.3 5 Noroeste 13 Norte 0 -- -- 82
2020-04-09 03:00:00 15.9 6 Noroeste 12 Noroeste 0 -- -- 85
2020-04-09 02:00:00 15.6 3 Noroeste 18 Noroeste 0 -- -- 89
2020-04-09 01:00:00 15.8 11 Noroeste 20 Noroeste 0 -- -- 96
2020-04-09 00:00:00 16 4 Oeste 15 Noroeste 0 -- -- 90
2020-04-08 23:00:00 16.3 12 Noroeste 16 Noroeste 0 -- -- 95
2020-04-08 22:00:00 16.6 0 Calma 8 Este 0 -- -- 92
2020-04-08 21:00:00 16.9 3 Norte 12 Oeste 0 -- -- 93
2020-04-08 20:00:00 17.6 8 Oeste 13 Oeste 0 -- -- 91
2020-04-08 19:00:00 18.1 7 Oeste 12 Oeste 0 -- -- 90
2020-04-08 18:00:00 18.3 6 Sur 11 Sur 0 -- -- 89
2020-04-08 17:00:00 18.3 6 Sur 13 Sur 0 -- -- 88
2020-04-08 16:00:00 18.9 6 Sur 13 Sur 0 -- -- 85
2020-04-08 15:00:00 18.8 6 Sur 16 Sur 0 -- -- 85
2020-04-08 14:00:00 19 7 Sur 18 Sudeste 0 -- -- 85
2020-04-08 13:00:00 20.2 12 Sudeste 20 Sudeste 0 -- -- 76
2020-04-08 12:00:00 20.4 12 Sur 17 Sur 0 -- -- 72
2020-04-08 11:00:00 19.7 6 Sur 11 Sur 0 -- -- 74
2020-04-08 10:00:00 18.5 7 Sudoeste 13 Sudoeste 0 -- -- 79
2020-04-08 09:00:00 17.1 3 Sudoeste 15 Noroeste 0 -- -- 83
2020-04-08 08:00:00 14.4 10 Noroeste 14 Noroeste 0 -- -- 86
2020-04-08 07:00:00 13.6 6 Noroeste 12 Norte 0 -- -- 84
2020-04-08 06:00:00 14 9 Norte 12 Norte 0 -- -- 88
2020-04-08 05:00:00 13.8 7 Noroeste 10 Noroeste 0 -- -- 87
2020-04-08 04:00:00 13.5 3 Este 8 Norte 0 -- -- 87
2020-04-08 03:00:00 13.8 6 Norte 9 Norte 0 -- -- 88
2020-04-08 02:00:00 14.5 5 Noroeste 10 Norte 0 -- -- 88
2020-04-08 01:00:00 14.3 2 Noroeste 9 Norte 0 -- -- 87
2020-04-08 00:00:00 14.7 6 Norte 9 Norte 0 -- -- 86
2020-04-07 23:00:00 15.1 0 Calma 11 Norte 0 -- -- 88
2020-04-07 22:00:00 16.3 5 Noroeste 8 Oeste 0 -- -- 93
2020-04-07 21:00:00 16.5 4 Oeste 10 Sudeste 0 -- -- 93
2020-04-07 20:00:00 16.8 6 Sudeste 13 Sudeste 0 -- -- 92
2020-04-07 19:00:00 17.4 8 Sudeste 19 Sudeste 0 -- -- 87
2020-04-07 18:00:00 18.5 10 Sur 17 Sur 0 -- -- 81
2020-04-07 17:00:00 18.5 10 Sudeste 19 Sur 0 -- -- 85
2020-04-07 16:00:00 18.7 10 Sur 19 Sur 0 -- -- 82
2020-04-07 15:00:00 18.7 12 Sudeste 20 Sur 0 -- -- 81
2020-04-07 14:00:00 18.5 12 Sudeste 21 Sur 0 -- -- 82
2020-04-07 13:00:00 18.5 13 Sur 20 Sur 0 -- -- 83
2020-04-07 12:00:00 18.2 11 Sudeste 20 Sur 0 -- -- 82
2020-04-07 11:00:00 19.3 11 Sur 17 Sur 0 -- -- 74
2020-04-07 10:00:00 18.4 8 Sudoeste 16 Sudoeste 0 -- -- 77
2020-04-07 09:00:00 16.9 3 Sudoeste 11 Norte 0 -- -- 80
2020-04-07 08:00:00 13.4 7 Noroeste 13 Noroeste 0 -- -- 82
2020-04-07 07:00:00 13.4 9 Norte 13 Norte 0 -- -- 89
2020-04-07 06:00:00 14 8 Norte 14 Norte 0 -- -- 86
2020-04-07 05:00:00 14.8 10 Norte 13 Norte 0 -- -- 88
2020-04-07 04:00:00 15 9 Norte 13 Norte 0 -- -- 90
2020-04-07 03:00:00 15.7 7 Noroeste 10 Norte 0 -- -- 89
2020-04-07 02:00:00 15.5 5 Noroeste 9 Norte 0 -- -- 91
2020-04-07 01:00:00 15.9 4 Norte 8 Norte 0 -- -- 90
2020-04-07 00:00:00 15 3 Norte 9 Norte 0 -- -- 89
2020-04-06 23:00:00 16.1 4 Norte 7 Norte 0 -- -- 87
2020-04-06 22:00:00 17.1 3 Sudoeste 8 Oeste 0 -- -- 93
2020-04-06 21:00:00 17.1 5 Sudoeste 9 Sudoeste 0 -- -- 93
2020-04-06 20:00:00 17.3 4 Sur 11 Sur 0 -- -- 92
2020-04-06 19:00:00 17.6 3 Sudoeste 12 Sudeste 0 -- -- 91
2020-04-06 18:00:00 18.1 6 Sudeste 15 Sur 0 -- -- 87
2020-04-06 17:00:00 19 8 Sudeste 18 Sur 0 -- -- 83
2020-04-06 16:00:00 19.8 10 Sur 17 Sur 0 -- -- 79
2020-04-06 15:00:00 20 6 Sur 19 Sur 0 -- -- 79
2020-04-06 14:00:00 20.7 10 Sur 17 Sur 0 -- -- 74
2020-04-06 13:00:00 19.9 9 Sur 18 Sur 0 -- -- 75
2020-04-06 12:00:00 20.6 7 Sur 16 Sur 0 -- -- 73
2020-04-06 11:00:00 20.2 7 Sur 15 Sur 0 -- -- 75
2020-04-06 10:00:00 18.9 6 Sur 10 Sudeste 0 -- -- 77
2020-04-06 09:00:00 17.5 4 Sudeste 12 Norte 0 -- -- 84
2020-04-06 08:00:00 13.4 7 Nordeste 11 Norte 0 -- -- 89
2020-04-06 07:00:00 13.3 4 Nordeste 8 Norte 0 -- -- 87
2020-04-06 06:00:00 13.1 3 Nordeste 10 Nordeste 0 -- -- 80
2020-04-06 05:00:00 13.7 4 Nordeste 11 Nordeste 0 -- -- 84
2020-04-06 04:00:00 13.9 6 Nordeste 10 Norte 0 -- -- 91
2020-04-06 03:00:00 14.2 8 Norte 11 Norte 0 -- -- 89
2020-04-06 02:00:00 14.9 5 Norte 10 Norte 0 -- -- 89
2020-04-06 01:00:00 14.8 3 Nordeste 8 Nordeste 0 -- -- 89
2020-04-06 00:00:00 15.1 2 Norte 8 Norte 0 -- -- 90
2020-04-05 23:00:00 15.8 3 Nordeste 7 Norte 0 -- -- 88
2020-04-05 22:00:00 16.8 3 Oeste 5 Oeste 0 -- -- 86
2020-04-05 21:00:00 17.2 3 Oeste 7 Sur 0 -- -- 85
2020-04-05 20:00:00 17.7 5 Sur 12 Sur 0 -- -- 81
2020-04-05 19:00:00 18.7 8 Sur 13 Sur 0 -- -- 78
2020-04-05 18:00:00 19.8 8 Sur 17 Sudeste 0 -- -- 71
2020-04-05 17:00:00 20.4 8 Sudeste 17 Sur 0 -- -- 70
2020-04-05 16:00:00 20.5 10 Sur 19 Sur 0 -- -- 67
2020-04-05 15:00:00 21.1 10 Sur 18 Sur 0 -- -- 67
2020-04-05 14:00:00 21 9 Sur 18 Sur 0 -- -- 69
2020-04-05 13:00:00 20.2 9 Sur 17 Sur 0 -- -- 71
2020-04-05 12:00:00 20.2 9 Sur 17 Sur 0 -- -- 72
2020-04-05 11:00:00 19.1 7 Sur 14 Sudoeste 0 -- -- 78
2020-04-05 10:00:00 18.6 6 Sudoeste 10 Sudoeste 0 -- -- 76
2020-04-05 09:00:00 16.5 2 Sur 10 Norte 0 -- -- 85
2020-04-05 08:00:00 13.4 5 Norte 14 Norte 0 -- -- 88
2020-04-05 07:00:00 13.4 9 Norte 14 Norte 0 -- -- 86
2020-04-05 06:00:00 13.7 5 Noroeste 14 Norte 0 -- -- 88
2020-04-05 05:00:00 13.7 4 Norte 14 Norte 0 -- -- 86
2020-04-05 04:00:00 13.4 7 Nordeste 12 Norte 0 -- -- 83
2020-04-05 03:00:00 13.9 10 Norte 13 Norte 0 -- -- 84
2020-04-05 02:00:00 14.5 5 Norte 10 Norte 0 -- -- 88
2020-04-05 01:00:00 14.4 10 Nordeste 14 Norte 0 -- -- 83
2020-04-05 00:00:00 14.7 3 Norte 10 Norte 0 -- -- 86
2020-04-04 23:00:00 15.7 3 Nordeste 10 Norte 0 -- -- 84
2020-04-04 22:00:00 16.4 3 Nordeste 6 Este 0 -- -- 90
2020-04-04 21:00:00 17 4 Sur 6 Sudeste 0 -- -- 92
2020-04-04 20:00:00 17.5 4 Sudeste 10 Sudeste 0 -- -- 88
2020-04-04 19:00:00 18.1 5 Sudeste 11 Sur 0 -- -- 82
2020-04-04 18:00:00 18.7 8 Sur 15 Sur 0 -- -- 79
2020-04-04 17:00:00 19.2 7 Sur 13 Sudeste 0 -- -- 75
2020-04-04 16:00:00 18.6 8 Sur 15 Sur 0 -- -- 83
2020-04-04 15:00:00 19.3 9 Sur 21 Sudeste 0 -- -- 75
2020-04-04 14:00:00 20.4 13 Sudeste 21 Sur 0 -- -- 71
2020-04-04 13:00:00 19.8 11 Sudeste 21 Sur 0 -- -- 72
2020-04-04 12:00:00 19.7 11 Sur 20 Sur 0 -- -- 76
2020-04-04 11:00:00 18.9 9 Sur 14 Sur 0 -- -- 80
2020-04-04 10:00:00 18.4 7 Sur 12 Sur 0 -- -- 74
2020-04-04 09:00:00 16.7 4 Oeste 10 Norte 0 -- -- 81
2020-04-04 08:00:00 13.2 5 Norte 17 Norte 0 -- -- 83
2020-04-04 07:00:00 13.2 13 Norte 16 Norte 0 -- -- 86
2020-04-04 06:00:00 13.5 14 Norte 20 Norte 0 -- -- 87
2020-04-04 05:00:00 13.4 6 Norte 15 Norte 0 -- -- 88
2020-04-04 04:00:00 13.9 4 Norte 15 Norte 0 -- -- 87
2020-04-04 03:00:00 14 12 Norte 15 Norte 0 -- -- 87
2020-04-04 02:00:00 13.8 6 Norte 13 Norte 0 -- -- 89
2020-04-04 01:00:00 14.2 6 Este 12 Nordeste 0 -- -- 89
2020-04-04 00:00:00 14.3 8 Nordeste 13 Norte 0 -- -- 89
2020-04-03 23:00:00 14.7 6 Nordeste 13 Nordeste 0 -- -- 88
2020-04-03 22:00:00 15.7 7 Nordeste 12 Norte 0 -- -- 88
2020-04-03 21:00:00 16.2 4 Sudeste 6 Sur 0 -- -- 90
2020-04-03 20:00:00 16.5 4 Sur 9 Sudeste 0 -- -- 89
2020-04-03 19:00:00 16.5 4 Sudeste 23 Sudoeste 0 -- -- 89
2020-04-03 18:00:00 16.5 10 Sudoeste 23 Oeste 0 -- -- 89
2020-04-03 17:00:00 16.9 10 Sudoeste 27 Sudoeste 0 -- -- 87
2020-04-03 16:00:00 16.9 13 Sudoeste 31 Sudoeste 0 -- -- 85
2020-04-03 15:00:00 16.8 18 Sudoeste 31 Sudoeste 0 -- -- 85
2020-04-03 14:00:00 16.6 19 Sudoeste 30 Sudoeste 0 -- -- 84
2020-04-03 13:00:00 16.8 16 Sudoeste 25 Sur 0 -- -- 80
2020-04-03 12:00:00 15.6 10 Sudoeste 21 Sudoeste 0 -- -- 85
2020-04-03 11:00:00 15.9 8 Sur 15 Sudoeste 0 -- -- 81
2020-04-03 10:00:00 15.4 8 Sudoeste 16 Sur 0 -- -- 79
2020-04-03 09:00:00 13.3 5 Norte 11 Norte 0 -- -- 87
2020-04-03 08:00:00 12.1 9 Norte 12 Norte 0 -- -- 88
2020-04-03 07:00:00 12.5 10 Norte 13 Norte 0 -- -- 86
2020-04-03 06:00:00 12.8 7 Norte 14 Norte 0 -- -- 85
2020-04-03 05:00:00 13.4 7 Norte 9 Norte 0 -- -- 85
2020-04-03 04:00:00 13.2 8 Norte 15 Nordeste 0 -- -- 87
2020-04-03 03:00:00 13.2 11 Norte 14 Norte 0 -- -- 86
2020-04-03 02:00:00 13.8 5 Nordeste 10 Nordeste 0 -- -- 84
2020-04-03 01:00:00 14.1 3 Sudeste 4 Sudeste 0 -- -- 90
2020-04-03 00:00:00 14.1 2 Sudeste 8 Sudeste 0 -- -- 90
2020-04-02 23:00:00 14.3 4 Sudeste 8 Sur 0 -- -- 90
2020-04-02 22:00:00 14.4 4 Sur 7 Sur 0 -- -- 89
2020-04-02 21:00:00 14.5 3 Sudeste 11 Sur 0 -- -- 88
2020-04-02 20:00:00 14.8 7 Sudeste 11 Sudeste 0 -- -- 88
2020-04-02 19:00:00 15.3 4 Sudeste 10 Sudeste 0 -- -- 86
2020-04-02 18:00:00 15.5 6 Sur 13 Sudeste 0 -- -- 85
2020-04-02 17:00:00 15.8 6 Sur 17 Sur 0 -- -- 83
2020-04-02 16:00:00 16.7 9 Sudeste 17 Sudeste 0 -- -- 82
2020-04-02 15:00:00 16.3 9 Sudeste 22 Sur 0 -- -- 81
2020-04-02 14:00:00 17.4 14 Sur 23 Sudeste 0 -- -- 75
2020-04-02 13:00:00 17.8 15 Sudeste 24 Sur 0 -- -- 74
2020-04-02 12:00:00 16.4 12 Sur 22 Sudeste 0 -- -- 77
2020-04-02 11:00:00 16.8 12 Sudeste 19 Sudeste 0 -- -- 75
2020-04-02 10:00:00 16.4 11 Sudeste 17 Sur 0 -- -- 77
2020-04-02 09:00:00 14.6 5 Sudeste 13 Norte 0 -- -- 75
2020-04-02 08:00:00 10 13 Norte 14 Norte 0 -- -- 78
2020-04-02 07:00:00 10.2 13 Norte 15 Norte 0 -- -- 80
2020-04-02 06:00:00 10.5 12 Norte 17 Norte 0 -- -- 84
2020-04-02 05:00:00 10.7 8 Norte 14 Norte 0 -- -- 87
2020-04-02 04:00:00 11.2 9 Nordeste 15 Norte 0 -- -- 90
2020-04-02 03:00:00 11.8 13 Norte 16 Norte 0 -- -- 89
2020-04-02 02:00:00 12.3 10 Norte 15 Norte 0.2 -- -- 88
2020-04-02 01:00:00 11.9 13 Norte 17 Norte 0 -- -- 90
2020-04-02 00:00:00 13.7 7 Norte 9 Norte 0 -- -- 91
2020-04-01 23:00:00 14 5 Nordeste 9 Norte 0 -- -- 90
2020-04-01 22:00:00 14.2 2 Nordeste 7 Sur 0 -- -- 93
2020-04-01 21:00:00 14.1 2 Sudeste 8 Sudeste 0 -- -- 94
2020-04-01 20:00:00 14.2 4 Sudeste 11 Sudeste 0.2 -- -- 94
2020-04-01 19:00:00 14.5 4 Sudeste 11 Sudeste 0 -- -- 92
2020-04-01 18:00:00 15 6 Sudeste 12 Sudeste 0 -- -- 88
2020-04-01 17:00:00 15.1 6 Sudeste 12 Sur 0 -- -- 86
2020-04-01 16:00:00 15.2 7 Sudeste 13 Sudeste 0 -- -- 87
2020-04-01 15:00:00 15.5 7 Sudeste 13 Sudeste 0 -- -- 85
2020-04-01 14:00:00 15.7 7 Sudeste 14 Sur 0 -- -- 84
2020-04-01 13:00:00 16.1 6 Sudeste 15 Sudeste 0 -- -- 82
2020-04-01 12:00:00 17.2 9 Sudeste 14 Sudeste 0 -- -- 77
2020-04-01 11:00:00 15.5 4 Sudoeste 13 Sudoeste 0 -- -- 84
2020-04-01 10:00:00 15.2 5 Oeste 13 Oeste 0 -- -- 82
2020-04-01 09:00:00 14.4 8 Noroeste 14 Noroeste 0 -- -- 85
2020-04-01 08:00:00 11.7 7 Norte 12 Norte 0 -- -- 86
2020-04-01 07:00:00 11.6 11 Norte 14 Norte 0 -- -- 85
2020-04-01 06:00:00 12.2 12 Norte 16 Norte 0 -- -- 82
2020-04-01 05:00:00 13.7 7 Norte 12 Nordeste 0 -- -- 79
2020-04-01 04:00:00 13.9 9 Norte 11 Norte 0 -- -- 80
2020-04-01 03:00:00 14.1 7 Norte 11 Norte 0 -- -- 81
2020-04-01 02:00:00 13.9 7 Norte 10 Norte 0 -- -- 82
2020-04-01 01:00:00 14.7 2 Noroeste 5 Norte 0 -- -- 89
2020-04-01 00:00:00 14.5 2 Nordeste 9 Nordeste 0 -- -- 88
2020-03-31 23:00:00 15 2 Sur 10 Sudeste 0 -- -- 94
2020-03-31 22:00:00 15.5 4 Sudeste 6 Sudeste 0 -- -- 95
2020-03-31 21:00:00 15.5 0 Calma 5 Sudeste 0 -- -- 93
2020-03-31 20:00:00 15.8 0 Calma 9 Sudeste 0 -- -- 91
2020-03-31 19:00:00 16.4 3 Sur 10 Sur 0 -- -- 87
2020-03-31 18:00:00 17 5 Sudoeste 11 Sur 0 -- -- 83
2020-03-31 17:00:00 16.7 4 Sudeste 14 Sudeste 0 -- -- 73
2020-03-31 16:00:00 16.9 11 Sudeste 17 Sudeste 0 -- -- 84
2020-03-31 15:00:00 16.6 8 Sudeste 18 Sudoeste 0 -- -- 76
2020-03-31 14:00:00 16.2 9 Sudoeste 18 Sudoeste 0 -- -- 87
2020-03-31 13:00:00 15.8 7 Sudoeste 14 Sudoeste 0 -- -- 89
2020-03-31 12:00:00 16.1 8 Sur 14 Sudoeste 0 -- -- 83
2020-03-31 11:00:00 18 8 Sur 15 Sudoeste 0 -- -- 75
2020-03-31 10:00:00 15.4 3 Sudeste 5 Sur 0 -- -- 80
2020-03-31 09:00:00 13.6 6 Norte 12 Nordeste 0 -- -- 85
2020-03-31 08:00:00 13.2 13 Norte 17 Norte 0 -- -- 81
2020-03-31 07:00:00 13.1 12 Norte 14 Norte 0 -- -- 83
2020-03-31 06:00:00 13.5 7 Nordeste 10 Nordeste 0 -- -- 91
2020-03-31 05:00:00 14.1 7 Este 11 Sudeste 0 -- -- 90
2020-03-31 04:00:00 14 4 Este 10 Norte 0 -- -- 91
2020-03-31 03:00:00 13.2 9 Norte 11 Norte 0 -- -- 92
2020-03-31 02:00:00 12.6 7 Norte 10 Noroeste 0 -- -- 90
2020-03-31 01:00:00 13 6 Norte 9 Norte 0 -- -- 91
2020-03-31 00:00:00 13 5 Norte 8 Norte 0 -- -- 91
2020-03-30 23:00:00 13.5 4 Noroeste 12 Norte 0 -- -- 89
2020-03-30 22:00:00 14.7 4 Nordeste 6 Nordeste 0 -- -- 91
2020-03-30 21:00:00 15 3 Sudeste 8 Sudeste 0 -- -- 90
2020-03-30 20:00:00 15.5 7 Sudeste 12 Sudeste 0 -- -- 89
2020-03-30 19:00:00 15.9 5 Sudeste 14 Sudeste 0 -- -- 84
2020-03-30 18:00:00 16.3 9 Sudeste 23 Sur 0 -- -- 82
2020-03-30 17:00:00 17 9 Sur 23 Sudoeste 0 -- -- 79
2020-03-30 16:00:00 16.6 16 Sudoeste 25 Sudoeste 0 -- -- 81
2020-03-30 15:00:00 17 8 Sudeste 18 Sudeste 0 -- -- 80
2020-03-30 14:00:00 17.1 10 Sudeste 15 Sur 0 -- -- 79
2020-03-30 13:00:00 16.2 10 Sudeste 20 Sudeste 0 -- -- 82
2020-03-30 12:00:00 17.8 11 Sudeste 17 Sudeste 0 -- -- 77
2020-03-30 11:00:00 16.5 7 Sur 15 Sur 0 -- -- 75
2020-03-30 10:00:00 15.7 8 Sudeste 14 Sudeste 0 -- -- 81
2020-03-30 09:00:00 12.5 5 Norte 9 Norte 0 -- -- 93
2020-03-30 08:00:00 10.7 6 Norte 12 Norte 0 -- -- 92
2020-03-30 07:00:00 10.6 5 Norte 12 Norte 0 -- -- 91
2020-03-30 06:00:00 10.7 9 Norte 12 Norte 0 -- -- 91
2020-03-30 05:00:00 10.9 9 Norte 13 Norte 0 -- -- 90
2020-03-30 04:00:00 11.3 10 Norte 13 Norte 0 -- -- 90
2020-03-30 03:00:00 11.5 12 Norte 14 Norte 0 -- -- 87
2020-03-30 02:00:00 12 9 Norte 13 Norte 0 -- -- 89
2020-03-30 01:00:00 12.9 9 Norte 12 Norte 0 -- -- 85
2020-03-30 00:00:00 13.3 5 Norte 10 Nordeste 0 -- -- 86
2020-03-29 23:00:00 13.9 3 Este 8 Sudeste 0 -- -- 87
2020-03-29 22:00:00 14.2 3 Sudeste 6 Sudeste 0 -- -- 89
2020-03-29 21:00:00 14.4 3 Sudeste 8 Sudeste 0 -- -- 89
2020-03-29 20:00:00 14.9 4 Sur 8 Sur 0 -- -- 86
2020-03-29 19:00:00 15.3 4 Sudeste 10 Sudeste 0 -- -- 85
2020-03-29 18:00:00 15.7 5 Sudeste 15 Este 0 -- -- 84
2020-03-29 17:00:00 15.3 8 Sudeste 14 Sudeste 0 -- -- 85
2020-03-29 16:00:00 14.5 8 Sudeste 13 Este 0 -- -- 88
2020-03-29 15:00:00 14.4 3 Este 13 Sudoeste 0 -- -- 88
2020-03-29 14:00:00 14.9 8 Sur 14 Sudoeste 0 -- -- 85
2020-03-29 13:00:00 14.7 7 Sur 12 Sur 0 -- -- 87
2020-03-29 12:00:00 15.4 6 Sur 13 Sur 0 -- -- 82
2020-03-29 11:00:00 13.9 0 Calma 5 Noroeste 0 -- -- 85
2020-03-29 10:00:00 13.7 3 Noroeste 7 Oeste 0 -- -- 83
2020-03-29 09:00:00 11.6 5 Norte 17 Norte 0 -- -- 90
2020-03-29 08:00:00 10.5 12 Norte 17 Norte 0 -- -- 87
2020-03-29 07:00:00 10.7 12 Norte 18 Nordeste 0 -- -- 82
2020-03-29 06:00:00 10.6 13 Norte 18 Norte 0 -- -- 86
2020-03-29 05:00:00 10.3 13 Norte 15 Norte 0 -- -- 86
2020-03-29 04:00:00 10.7 12 Norte 14 Norte 0 -- -- 87
2020-03-29 00:00:00 12.4 7 Norte 12 Norte 0 -- -- 89
2020-03-28 23:00:00 12.7 11 Norte 15 Norte 0 -- -- 91
2020-03-28 22:00:00 12.9 9 Norte 12 Noroeste 0.8 -- -- 94
2020-03-28 21:00:00 13 6 Noroeste 11 Noroeste 0.4 -- -- 93
2020-03-28 20:00:00 13.1 8 Norte 12 Noroeste 2.2 -- -- 93
2020-03-28 19:00:00 13.7 7 Noroeste 14 Noroeste 4 -- -- 92
2020-03-28 18:00:00 14.4 11 Sur 17 Sur 0 -- -- 86
2020-03-28 17:00:00 14.9 8 Sudeste 20 Sur 0 -- -- 82
2020-03-28 16:00:00 15.1 9 Sur 26 Sudeste 0 -- -- 79
2020-03-28 15:00:00 15.4 17 Sudeste 25 Sudeste 0 -- -- 79
2020-03-28 14:00:00 15.6 12 Sur 22 Sur 0 -- -- 78
2020-03-28 13:00:00 15.5 12 Sur 21 Sur 0 -- -- 77
2020-03-28 12:00:00 15.9 9 Sur 23 Sur 0 -- -- 75
2020-03-28 11:00:00 17.2 12 Sur 22 Sudeste 0 -- -- 67
2020-03-28 10:00:00 17.1 12 Sur 18 Sur 0 -- -- 71
2020-03-28 09:00:00 16 5 Sur 11 Sur 0 -- -- 73
2020-03-28 08:00:00 14.7 2 Sur 13 Nordeste 0 -- -- 76
2020-03-28 07:00:00 12.1 10 Nordeste 15 Nordeste 0 -- -- 71
2020-03-28 06:00:00 12.6 10 Nordeste 18 Nordeste 0 -- -- 70
2020-03-28 05:00:00 12.6 15 Nordeste 26 Nordeste 0 -- -- 67
2020-03-28 04:00:00 11.9 7 Norte 18 Norte 0 -- -- 80
2020-03-28 03:00:00 11.9 13 Norte 31 Norte 0 -- -- 74
2020-03-28 02:00:00 12.4 8 Norte 49 Norte 0 -- -- 72
2020-03-28 01:00:00 12.7 26 Norte 41 Norte 0 -- -- 74
2020-03-28 00:00:00 12.5 13 Norte 33 Norte 0.4 -- -- 81
2020-03-27 23:00:00 12.4 10 Norte 24 Noroeste 1.6 -- -- 86
2020-03-27 22:00:00 12.5 14 Norte 20 Norte 0.8 -- -- 88
2020-03-27 21:00:00 13 18 Norte 23 Norte 0.2 -- -- 84
2020-03-27 20:00:00 13 16 Norte 25 Norte 0.8 -- -- 87
2020-03-27 19:00:00 13.3 10 Norte 16 Nordeste 2.6 -- -- 88
2020-03-27 18:00:00 14.7 5 Sudeste 8 Sudeste 0 -- -- 89
2020-03-27 17:00:00 15.1 0 Calma 11 Sur 0.4 -- -- 83
2020-03-27 16:00:00 15.4 8 Sur 13 Sudoeste 0 -- -- 82
2020-03-27 15:00:00 15.9 6 Sur 14 Sudeste 0 -- -- 84
2020-03-27 14:00:00 15.3 8 Sudoeste 21 Sudoeste 0 -- -- 81
2020-03-27 13:00:00 15.6 8 Sudoeste 19 Sur 0 -- -- 78
2020-03-27 12:00:00 16.2 12 Sur 23 Sur 0 -- -- 75
2020-03-27 11:00:00 16.2 6 Sudoeste 15 Sudeste 0 -- -- 75
2020-03-27 10:00:00 14.9 5 Sur 10 Sudeste 0 -- -- 79
2020-03-27 09:00:00 14 6 Sudeste 10 Sudeste 0 -- -- 80
2020-03-27 08:00:00 13 6 Nordeste 11 Nordeste 0 -- -- 83
2020-03-27 07:00:00 12.1 3 Nordeste 6 Nordeste 0 -- -- 86
2020-03-27 06:00:00 12.3 4 Norte 9 Noroeste 0 -- -- 84
2020-03-27 05:00:00 12.4 4 Norte 7 Sur 0 -- -- 88
2020-03-27 04:00:00 12.4 0 Calma 6 Norte 0 -- -- 85
2020-03-27 03:00:00 12.8 3 Nordeste 10 Nordeste 0 -- -- 81
2020-03-27 02:00:00 12.9 8 Nordeste 12 Este 0 -- -- 81
2020-03-27 01:00:00 12.8 4 Noroeste 8 Norte 0 -- -- 80
2020-03-27 00:00:00 12.7 5 Norte 14 Norte 0 -- -- 79
2020-03-26 23:00:00 11.8 7 Nordeste 14 Norte 0 -- -- 83
2020-03-26 22:00:00 12.3 9 Norte 13 Norte 0 -- -- 86
2020-03-26 21:00:00 13.1 5 Norte 8 Norte 0 -- -- 86
2020-03-26 20:00:00 13.5 4 Sudoeste 9 Sur 0 -- -- 84
2020-03-26 19:00:00 13.6 5 Sur 9 Sur 0 -- -- 84
2020-03-26 18:00:00 13.8 6 Sur 11 Sur 0 -- -- 84
2020-03-26 17:00:00 14.2 8 Sur 15 Sur 0 -- -- 84
2020-03-26 16:00:00 14.3 3 Sur 10 Sur 0 -- -- 80
2020-03-26 15:00:00 14.4 9 Sur 18 Sur 0 -- -- 78
2020-03-26 14:00:00 15.6 9 Sur 18 Sur 0 -- -- 73
2020-03-26 13:00:00 15.2 8 Sur 21 Sudeste 0 -- -- 68
2020-03-26 12:00:00 15.4 11 Sur 19 Sudeste 0 -- -- 70
2020-03-26 11:00:00 15.6 9 Sudeste 14 Sur 0 -- -- 72
2020-03-26 10:00:00 14.5 10 Sur 16 Sur 0 -- -- 78
2020-03-26 09:00:00 15.2 7 Sudeste 13 Sur 0 -- -- 68
2020-03-26 08:00:00 12.1 4 Norte 14 Norte 0 -- -- 81
2020-03-26 07:00:00 9.9 11 Norte 18 Norte 0 -- -- 83
2020-03-26 06:00:00 10.3 15 Norte 17 Nordeste 0 -- -- 78
2020-03-26 05:00:00 10.7 9 Nordeste 13 Norte 0 -- -- 83
2020-03-26 04:00:00 10.9 7 Nordeste 14 Nordeste 0 -- -- 84
2020-03-26 03:00:00 11.3 13 Norte 15 Norte 0 -- -- 84
2020-03-26 02:00:00 11.7 6 Nordeste 10 Nordeste 0 -- -- 89
2020-03-26 01:00:00 11.2 6 Nordeste 14 Nordeste 0 -- -- 89
2020-03-26 00:00:00 10.6 10 Norte 15 Norte 0 -- -- 86
2020-03-25 23:00:00 10.7 13 Norte 15 Norte 0 -- -- 86
2020-03-25 22:00:00 10.9 9 Norte 14 Norte 0 -- -- 88
2020-03-25 21:00:00 11.5 11 Norte 15 Norte 0 -- -- 87
2020-03-25 20:00:00 12.2 8 Norte 14 Noroeste 0 -- -- 88
2020-03-25 19:00:00 12.2 13 Noroeste 23 Noroeste 0.8 -- -- 92
2020-03-25 18:00:00 12.2 14 Noroeste 21 Noroeste 3 -- -- 91
2020-03-25 17:00:00 13.3 6 Noroeste 15 Sur 0.2 -- -- 91
2020-03-25 16:00:00 13.6 8 Sur 19 Sudeste 1 -- -- 90
2020-03-25 15:00:00 13.6 12 Sur 18 Sur 0.4 -- -- 89
2020-03-25 14:00:00 13.5 6 Sudeste 15 Sudeste 1.8 -- -- 89
2020-03-25 13:00:00 14.1 6 Sur 21 Sur 0 -- -- 85
2020-03-25 12:00:00 15.3 11 Sur 22 Sur 0 -- -- 76
2020-03-25 11:00:00 17 13 Sur 21 Sur 0 -- -- 64
2020-03-25 10:00:00 15.9 4 Sudoeste 9 Sur 0 -- -- 69
2020-03-25 09:00:00 14.1 3 Sudeste 9 Norte 0 -- -- 73
2020-03-25 08:00:00 13.1 8 Norte 13 Norte 0 -- -- 78
2020-03-25 07:00:00 12.9 8 Norte 11 Este 0 -- -- 83
2020-03-25 06:00:00 13.2 9 Sudeste 14 Sudeste 0 -- -- 82
2020-03-25 05:00:00 13.1 9 Norte 12 Noroeste 0 -- -- 81
2020-03-25 04:00:00 13.1 5 Norte 8 Sur 0 -- -- 81
2020-03-25 03:00:00 13.1 7 Noroeste 19 Norte 0 -- -- 79
2020-03-25 02:00:00 13.5 13 Norte 20 Norte 0 -- -- 61
2020-03-25 01:00:00 13.2 5 Noroeste 25 Norte 0 -- -- 78
2020-03-25 00:00:00 14.5 17 Norte 46 Norte 0 -- -- 56
2020-03-24 23:00:00 15.4 24 Norte 48 Norte 0 -- -- 51
2020-03-24 22:00:00 15.1 27 Norte 54 Norte 0 -- -- 51
2020-03-24 21:00:00 14.8 27 Norte 43 Norte 0 -- -- 54
2020-03-24 20:00:00 14.4 2 Oeste 6 Sudoeste 0 -- -- 82
2020-03-24 19:00:00 15.1 4 Sudoeste 8 Sudoeste 0 -- -- 76
2020-03-24 18:00:00 15.6 5 Oeste 13 Sudoeste 0 -- -- 75
2020-03-24 17:00:00 15.6 6 Sudoeste 19 Sudoeste 0 -- -- 78
2020-03-24 16:00:00 15.7 11 Sudoeste 20 Sudeste 0 -- -- 78
2020-03-24 15:00:00 15.8 17 Sudeste 28 Sudoeste 0 -- -- 81
2020-03-24 14:00:00 17.2 11 Sur 27 Sudeste 0 -- -- 67
2020-03-24 13:00:00 19 12 Sur 27 Sudoeste 0 -- -- 61
2020-03-24 12:00:00 19.1 17 Sudoeste 49 Sudoeste 0 -- -- 53
2020-03-24 11:00:00 19 12 Sudoeste 27 Sudeste 0 -- -- 56
2020-03-24 10:00:00 17.6 6 Sudoeste 22 Oeste 0 -- -- 59
2020-03-24 09:00:00 15.9 12 Oeste 41 Norte 0 -- -- 69
2020-03-24 08:00:00 13.6 15 Norte 38 Norte 0.2 -- -- 68
2020-03-24 07:00:00 13.4 12 Nordeste 49 Norte 0 -- -- 71
2020-03-24 06:00:00 13.5 10 Nordeste 40 Norte 0 -- -- 69
2020-03-24 05:00:00 13.5 6 Oeste 32 Noroeste 0.2 -- -- 69
2020-03-24 04:00:00 13.3 8 Norte 35 Nordeste 0.2 -- -- 74
2020-03-24 03:00:00 13.1 6 Norte 35 Norte 0.2 -- -- 73
2020-03-24 02:00:00 14.1 6 Oeste 39 Norte 0.2 -- -- 67
2020-03-24 01:00:00 14.4 15 Noroeste 36 Sudoeste 0 -- -- 63
2020-03-24 00:00:00 13.8 10 Nordeste 31 Noroeste 0 -- -- 69
2020-03-23 23:00:00 13.8 18 Oeste 52 Nordeste 0 -- -- 68
2020-03-23 22:00:00 13.2 17 Norte 49 Nordeste 0.2 -- -- 60
2020-03-23 21:00:00 13.9 18 Norte 46 Norte 0.4 -- -- 68
2020-03-23 20:00:00 12.9 15 Nordeste 42 Nordeste 1 -- -- 80
2020-03-23 19:00:00 14.1 15 Nordeste 48 Norte 0.2 -- -- 66
2020-03-23 18:00:00 14.3 11 Nordeste 35 Nordeste 0 -- -- 64
2020-03-23 17:00:00 14.8 12 Nordeste 45 Nordeste 0.2 -- -- 71
2020-03-23 16:00:00 14.7 19 Nordeste 53 Nordeste 0.4 -- -- 65
2020-03-23 15:00:00 14.9 28 Nordeste 67 Nordeste 0.6 -- -- 69
2020-03-23 14:00:00 14.5 31 Nordeste 66 Nordeste 1.2 -- -- 76
2020-03-23 13:00:00 15.1 23 Nordeste 82 Norte 0.2 -- -- 71
2020-03-23 12:00:00 13.9 28 Nordeste 57 Nordeste 1.4 -- -- 75
2020-03-23 11:00:00 13.7 24 Nordeste 60 Norte 0 -- -- 64
2020-03-23 10:00:00 13.3 29 Nordeste 88 Norte 1 -- -- 68
2020-03-23 09:00:00 12.3 41 Nordeste 97 Norte 4 -- -- 78
2020-03-23 08:00:00 11.3 46 Nordeste 93 Norte 9.2 -- -- 85
2020-03-23 07:00:00 11.3 48 Nordeste 93 Norte 5.8 -- -- 79
2020-03-23 06:00:00 11.7 42 Nordeste 83 Norte 2.4 -- -- 73
2020-03-23 05:00:00 11.2 24 Norte 87 Norte 6 -- -- 76
2020-03-23 04:00:00 11.4 40 Norte 75 Norte 3.4 -- -- 71
2020-03-23 03:00:00 11.4 35 Norte 71 Norte 4 -- -- 75
2020-03-23 02:00:00 12.8 30 Norte 66 Norte 0 -- -- 62
2020-03-23 01:00:00 12.4 31 Norte 75 Nordeste 0.6 -- -- 73
2020-03-23 00:00:00 12.4 28 Norte 74 Norte 0.8 -- -- 75
2020-03-22 23:00:00 12.9 41 Norte 73 Noroeste 1.2 -- -- 68
2020-03-22 22:00:00 12.1 34 Norte 76 Norte 2.6 -- -- 73
2020-03-22 21:00:00 12.4 39 Norte 68 Norte 3.2 -- -- 72
2020-03-22 20:00:00 12.7 26 Norte 58 Norte 0.2 -- -- 69
2020-03-22 19:00:00 13 19 Nordeste 68 Norte 0.4 -- -- 67
2020-03-22 18:00:00 12.7 28 Norte 58 Norte 2.6 -- -- 83
2020-03-22 17:00:00 12.9 5 Sur 14 Sudeste 3.2 -- -- 90
2020-03-22 16:00:00 14.8 10 Sudeste 18 Sudoeste 0 -- -- 81
2020-03-22 15:00:00 15.1 9 Sur 23 Sudeste 0 -- -- 71
2020-03-22 14:00:00 15.7 9 Sudeste 27 Sudeste 0 -- -- 70
2020-03-22 13:00:00 15.8 13 Sur 29 Sudoeste 0 -- -- 70
2020-03-22 12:00:00 16.6 13 Sudoeste 24 Sudoeste 0 -- -- 65
2020-03-22 11:00:00 16.8 13 Sur 22 Sudoeste 0 -- -- 64
2020-03-22 10:00:00 15 6 Sudoeste 13 Sudoeste 0 -- -- 62
2020-03-22 09:00:00 13.9 14 Norte 40 Nordeste 0 -- -- 65
2020-03-22 08:00:00 12.7 3 Sudeste 12 Norte 0 -- -- 72
2020-03-22 07:00:00 11.6 5 Nordeste 18 Norte 0 -- -- 75
2020-03-22 06:00:00 11.7 6 Noroeste 21 Noroeste 0 -- -- 70
2020-03-22 05:00:00 12.4 12 Noroeste 22 Noroeste 0 -- -- 72
2020-03-22 04:00:00 11.3 8 Norte 18 Noroeste 0 -- -- 72
2020-03-22 03:00:00 13.6 15 Norte 41 Norte 0 -- -- 56
2020-03-22 02:00:00 13.4 19 Norte 49 Norte 0 -- -- 53
2020-03-22 01:00:00 13.4 23 Norte 49 Norte 0 -- -- 55
2020-03-22 00:00:00 13.3 4 Oeste 39 Nordeste 0 -- -- 68
2020-03-21 23:00:00 13.7 16 Norte 38 Norte 0 -- -- 61
2020-03-21 22:00:00 13.8 13 Noroeste 28 Norte 0 -- -- 59
2020-03-21 21:00:00 13.9 15 Noroeste 30 Oeste 0 -- -- 67
2020-03-21 20:00:00 14.1 17 Noroeste 54 Norte 0 -- -- 65
2020-03-21 19:00:00 14.4 25 Norte 55 Nordeste 0 -- -- 59
2020-03-21 18:00:00 16.1 22 Norte 63 Norte 0 -- -- 52
2020-03-21 17:00:00 -- -- -- -- -- -- -- -- --
2020-03-21 16:00:00 19.4 12 Noroeste 47 Nordeste 0 -- -- 44
2020-03-21 15:00:00 18.8 21 Noroeste 62 Norte 0 -- -- 45
2020-03-21 14:00:00 19.2 12 Noroeste 41 Oeste 0 -- -- 44
2020-03-21 13:00:00 18.8 10 Sudoeste 32 Sudoeste 0 -- -- 45
2020-03-21 12:00:00 18.1 17 Sur 37 Sur 0 -- -- 46
2020-03-21 11:00:00 16.9 14 Sur 30 Sudeste 0 -- -- 49
2020-03-21 10:00:00 16.4 13 Sur 31 Sur 0 -- -- 51
2020-03-21 09:00:00 14.8 6 Sudoeste 15 Oeste 0 -- -- 59
2020-03-21 08:00:00 12.5 9 Oeste 13 Oeste 0 -- -- 69
2020-03-21 07:00:00 11 9 Norte 14 Norte 0 -- -- 74
2020-03-21 06:00:00 11.2 4 Noroeste 14 Norte 0 -- -- 74
2020-03-21 05:00:00 11.7 5 Noroeste 15 Noroeste 0 -- -- 74
2020-03-21 04:00:00 12.5 10 Noroeste 19 Noroeste 0 -- -- 72
2020-03-21 03:00:00 12.5 13 Noroeste 18 Noroeste 0 -- -- 75
2020-03-21 02:00:00 13.5 9 Noroeste 23 Norte 0 -- -- 68
2020-03-21 01:00:00 13.2 9 Norte 15 Noroeste 0 -- -- 76
2020-03-21 00:00:00 13.8 0 Calma 10 Noroeste 0 -- -- 80
2020-03-20 23:00:00 14.1 7 Noroeste 13 Noroeste 0 -- -- 77
2020-03-20 22:00:00 13.6 7 Norte 13 Noroeste 0 -- -- 79
2020-03-20 21:00:00 14.2 4 Nordeste 21 Noroeste 0 -- -- 76
2020-03-20 20:00:00 14.7 9 Oeste 24 Noroeste 0 -- -- 77
2020-03-20 19:00:00 15.9 17 Noroeste 30 Noroeste 0 -- -- 71
2020-03-20 18:00:00 18.4 22 Norte 45 Norte 0 -- -- 55
2020-03-20 17:00:00 20.7 11 Sudoeste 52 Norte 0 -- -- 43
2020-03-20 16:00:00 20.2 32 Norte 60 Norte 0 -- -- 41
2020-03-20 15:00:00 21.8 15 Noroeste 50 Norte 0 -- -- 38
2020-03-20 14:00:00 21.3 27 Norte 60 Nordeste 0 -- -- 35
2020-03-20 13:00:00 20.3 32 Nordeste 54 Norte 0 -- -- 33
2020-03-20 12:00:00 20.3 26 Nordeste 47 Nordeste 0 -- -- 24
2020-03-20 11:00:00 20 12 Oeste 40 Nordeste 0 -- -- 50
2020-03-20 10:00:00 18.1 18 Norte 41 Nordeste 0 -- -- 52
2020-03-20 09:00:00 16.5 28 Norte 62 Norte 0 -- -- 54
2020-03-20 08:00:00 15.6 10 Nordeste 32 Norte 0 -- -- 58
2020-03-20 07:00:00 14.5 26 Norte 51 Nordeste 0 -- -- 64
2020-03-20 06:00:00 14.5 7 Nordeste 42 Norte 0 -- -- 67
2020-03-20 05:00:00 14.8 24 Nordeste 56 Nordeste 0 -- -- 63
2020-03-20 04:00:00 15.4 13 Noroeste 36 Noroeste 0 -- -- 59
2020-03-20 03:00:00 15.2 10 Oeste 46 Nordeste 0 -- -- 66
2020-03-20 02:00:00 15.1 15 Norte 50 Norte 0 -- -- 62
2020-03-20 01:00:00 15.8 23 Norte 51 Norte 0 -- -- 63
2020-03-20 00:00:00 16 19 Noroeste 44 Noroeste 0 -- -- 62
2020-03-19 23:00:00 16.2 6 Este 56 Norte 0 -- -- 62
2020-03-19 22:00:00 16.3 13 Nordeste 43 Nordeste 0 -- -- 58
2020-03-19 21:00:00 16.2 9 Norte 33 Norte 0 -- -- 58
2020-03-19 20:00:00 16.7 6 Sudeste 36 Noroeste 0 -- -- 56
2020-03-19 19:00:00 16.7 9 Sudeste 44 Noroeste 0 -- -- 56
2020-03-19 18:00:00 17.7 17 Sudoeste 42 Norte 0 -- -- 57
2020-03-19 17:00:00 18.5 9 Sudoeste 27 Noroeste 0 -- -- 55
2020-03-19 16:00:00 18.6 10 Oeste 28 Norte 0 -- -- 55
2020-03-19 15:00:00 19.6 6 Nordeste 36 Norte 0 -- -- 53
2020-03-19 14:00:00 19.3 19 Nordeste 39 Norte 0 -- -- 56
2020-03-19 13:00:00 18.7 9 Sur 46 Norte 0 -- -- 61
2020-03-19 12:00:00 18.4 7 Noroeste 51 Noroeste 0 -- -- 56
2020-03-19 11:00:00 17.3 22 Nordeste 53 Norte 0 -- -- 65
2020-03-19 10:00:00 18.3 21 Nordeste 60 Nordeste 0 -- -- 55
2020-03-19 09:00:00 17.1 17 Nordeste 50 Este 0 -- -- 57
2020-03-19 08:00:00 15.6 11 Nordeste 48 Norte 0 -- -- 60
2020-03-19 07:00:00 14.8 12 Sudeste 36 Oeste 0 -- -- 63
2020-03-19 06:00:00 14.8 18 Norte 50 Norte 0 -- -- 61
2020-03-19 05:00:00 14.9 16 Norte 50 Norte 0 -- -- 63
2020-03-19 04:00:00 15.3 15 Norte 62 Norte 0 -- -- 57
2020-03-19 03:00:00 15.2 16 Norte 55 Noroeste 0 -- -- 58
2020-03-19 02:00:00 15.3 15 Oeste 68 Noroeste 0 -- -- 55
2020-03-19 01:00:00 14.8 24 Noroeste 65 Norte 0 -- -- 59
2020-03-19 00:00:00 14.7 18 Noroeste 54 Noroeste 0 -- -- 54
2020-03-18 23:00:00 14.5 23 Norte 59 Norte 0 -- -- 53
2020-03-18 22:00:00 14.6 22 Norte 41 Norte 0 -- -- 60
2020-03-18 21:00:00 14.9 15 Norte 44 Noroeste 0 -- -- 54
2020-03-18 20:00:00 14.7 23 Norte 59 Norte 0 -- -- 56
2020-03-18 19:00:00 15 23 Norte 61 Norte 0 -- -- 55
2020-03-18 18:00:00 16.5 14 Norte 60 Norte 0 -- -- 51
2020-03-18 17:00:00 16.5 20 Norte 56 Norte 0 -- -- 49
2020-03-18 16:00:00 17.9 28 Norte 70 Norte 0 -- -- 46
2020-03-18 15:00:00 19.4 20 Norte 59 Norte 0 -- -- 42
2020-03-18 14:00:00 19.5 29 Norte 52 Norte 0 -- -- 40
2020-03-18 13:00:00 19.7 14 Noroeste 49 Nordeste 0 -- -- 39
2020-03-18 12:00:00 19.3 14 Este 47 Norte 0 -- -- 40
2020-03-18 11:00:00 16.7 35 Norte 53 Norte 0 -- -- 47
2020-03-18 10:00:00 16.6 21 Norte 50 Norte 0 -- -- 47
2020-03-18 09:00:00 14.8 26 Norte 52 Noroeste 0 -- -- 61
2020-03-18 08:00:00 13 30 Norte 58 Nordeste 0 -- -- 68
2020-03-18 07:00:00 11.6 5 Este 16 Nordeste 0 -- -- 72
2020-03-18 06:00:00 11.8 10 Nordeste 40 Noroeste 0 -- -- 70
2020-03-18 05:00:00 12.9 15 Noroeste 40 Noroeste 0 -- -- 67
2020-03-18 04:00:00 12.7 12 Noroeste 49 Norte 0 -- -- 64
2020-03-18 03:00:00 13.1 30 Norte 52 Noroeste 0 -- -- 63
2020-03-18 02:00:00 14.2 17 Noroeste 49 Norte 0 -- -- 60
2020-03-18 01:00:00 13.3 29 Norte 51 Norte 0 -- -- 64
2020-03-18 00:00:00 13.5 19 Norte 40 Noroeste 0 -- -- 64
2020-03-17 23:00:00 13.7 20 Norte 50 Norte 0 -- -- 62
2020-03-17 22:00:00 13.5 22 Norte 46 Norte 0 -- -- 63
2020-03-17 21:00:00 13.8 24 Noroeste 42 Norte 0 -- -- 66
2020-03-17 20:00:00 13.8 11 Oeste 42 Norte 0 -- -- 68
2020-03-17 19:00:00 14.6 19 Noroeste 49 Norte 0 -- -- 62
2020-03-17 18:00:00 16.1 24 Norte 58 Norte 0 -- -- 60
2020-03-17 17:00:00 17.8 26 Norte 56 Norte 0 -- -- 52
2020-03-17 16:00:00 17.1 21 Sur 47 Sudeste 0 -- -- 58
2020-03-17 15:00:00 18 24 Sudeste 45 Sudeste 0 -- -- 57
2020-03-17 14:00:00 17.9 30 Sudeste 56 Sudeste 0 -- -- 54
2020-03-17 13:00:00 17.3 36 Sudeste 59 Sudeste 0 -- -- 62
2020-03-17 12:00:00 17.5 41 Sudeste 60 Sudeste 0 -- -- 58
2020-03-17 11:00:00 16.2 23 Sudeste 49 Este 0 -- -- 57
2020-03-17 10:00:00 15.2 30 Sudeste 45 Sudeste 0 -- -- 58
2020-03-17 09:00:00 13.7 20 Sudeste 36 Sudeste 0 -- -- 68
2020-03-17 08:00:00 11.3 5 Noroeste 14 Noroeste 0 -- -- 70
2020-03-17 07:00:00 11.6 8 Oeste 31 Sudeste 0 -- -- 70
2020-03-17 06:00:00 11.7 5 Norte 33 Sudeste 0 -- -- 69
2020-03-17 05:00:00 12.1 12 Este 36 Sudeste 0 -- -- 68
2020-03-17 04:00:00 12.3 10 Sudeste 42 Sudeste 0 -- -- 66
2020-03-17 03:00:00 12.5 12 Este 49 Sudeste 0 -- -- 65
2020-03-17 02:00:00 12.4 26 Sudeste 45 Sudeste 0 -- -- 73
2020-03-17 01:00:00 13 10 Noroeste 28 Norte 0 -- -- 66
2020-03-17 00:00:00 13.4 9 Oeste 33 Noroeste 0 -- -- 64
2020-03-16 23:00:00 13.8 9 Sudoeste 29 Norte 0 -- -- 65
2020-03-16 22:00:00 14.4 13 Norte 31 Noroeste 0 -- -- 63
2020-03-16 21:00:00 14.4 17 Oeste 30 Oeste 0 -- -- 67
2020-03-16 20:00:00 14.7 11 Oeste 36 Noroeste 0 -- -- 68
2020-03-16 19:00:00 15.1 14 Sudeste 35 Sudeste 0 -- -- 69
2020-03-16 18:00:00 16.5 13 Sur 58 Norte 0 -- -- 66
2020-03-16 17:00:00 18 32 Norte 66 Nordeste 0 -- -- 53
2020-03-16 16:00:00 19.3 29 Nordeste 61 Norte 0 -- -- 50
2020-03-16 15:00:00 20.1 33 Nordeste 64 Norte 0 -- -- 45
2020-03-16 14:00:00 20.1 33 Norte 69 Norte 0 -- -- 45
2020-03-16 13:00:00 20.5 13 Sur 49 Sudeste 0 -- -- 40
2020-03-16 12:00:00 19.1 26 Sudeste 56 Sudeste 0 -- -- 45
2020-03-16 11:00:00 18.3 35 Sudeste 53 Sudeste 0 -- -- 44
2020-03-16 10:00:00 17.7 22 Sudeste 44 Sudeste 0 -- -- 52
2020-03-16 09:00:00 16.8 15 Sudeste 31 Sudeste 0 -- -- 48
2020-03-16 08:00:00 14.2 10 Sudeste 45 Norte 0 -- -- 63
2020-03-16 07:00:00 13.5 8 Sur 32 Sudoeste 0 -- -- 67
2020-03-16 06:00:00 13.8 12 Oeste 35 Noroeste 0 -- -- 62
2020-03-16 05:00:00 14.2 12 Sudeste 36 Este 0 -- -- 67
2020-03-16 04:00:00 15 10 Sudeste 39 Este 0 -- -- 65
2020-03-16 03:00:00 14.5 17 Este 33 Sudeste 0 -- -- 70
2020-03-16 02:00:00 15.2 12 Nordeste 45 Norte 0 -- -- 64
2020-03-16 01:00:00 14.8 23 Nordeste 46 Este 0 -- -- 63
2020-03-16 00:00:00 14.6 14 Norte 34 Sudeste 0 -- -- 66
2020-03-15 23:00:00 14.8 5 Este 43 Nordeste 0 -- -- 62
2020-03-15 22:00:00 15 20 Nordeste 55 Nordeste 0 -- -- 58
2020-03-15 21:00:00 15 13 Norte 46 Nordeste 0 -- -- 59
2020-03-15 20:00:00 14.9 11 Noroeste 44 Noroeste 0 -- -- 57
2020-03-15 19:00:00 15 11 Sudoeste 56 Norte 0 -- -- 62
2020-03-15 18:00:00 16.6 17 Nordeste 65 Nordeste 0 -- -- 54
2020-03-15 17:00:00 17 28 Nordeste 76 Norte 0 -- -- 50
2020-03-15 16:00:00 18.1 37 Norte 69 Norte 0 -- -- 53
2020-03-15 15:00:00 19.1 27 Nordeste 55 Norte 0 -- -- 43
2020-03-15 14:00:00 18.7 29 Nordeste 64 Norte 0 -- -- 47
2020-03-15 13:00:00 18.8 24 Nordeste 53 Norte 0 -- -- 51
2020-03-15 12:00:00 19.3 16 Nordeste 46 Nordeste 0 -- -- 44
2020-03-15 11:00:00 18.5 17 Nordeste 44 Norte 0 -- -- 48
2020-03-15 10:00:00 18.2 11 Sudoeste 24 Nordeste 0 -- -- 49
2020-03-15 09:00:00 16.2 4 Sudeste 15 Norte 0 -- -- 55
2020-03-15 08:00:00 12.8 9 Nordeste 16 Norte 0 -- -- 65
2020-03-15 07:00:00 12.4 6 Nordeste 21 Norte 0 -- -- 68
2020-03-15 06:00:00 11.9 11 Nordeste 24 Norte 0 -- -- 75
2020-03-15 05:00:00 12.2 10 Nordeste 18 Norte 0 -- -- 69
2020-03-15 04:00:00 12.3 9 Nordeste 30 Oeste 0 -- -- 67
2020-03-15 03:00:00 13 2 Sudoeste 24 Nordeste 0 -- -- 68
2020-03-15 02:00:00 12.6 13 Norte 17 Norte 0 -- -- 67
2020-03-15 01:00:00 12.9 8 Nordeste 25 Norte 0 -- -- 63
2020-03-15 00:00:00 14.1 15 Norte 45 Norte 0 -- -- 57
2020-03-14 23:00:00 14.5 24 Nordeste 50 Nordeste 0 -- -- 52
2020-03-14 22:00:00 14.6 19 Norte 48 Norte 0 -- -- 53
2020-03-14 21:00:00 14.8 26 Norte 42 Norte 0 -- -- 55
2020-03-14 20:00:00 14.4 6 Norte 15 Nordeste 0 -- -- 64
2020-03-14 19:00:00 15.1 7 Norte 23 Noroeste 0 -- -- 66
2020-03-14 18:00:00 16.3 14 Noroeste 26 Noroeste 0 -- -- 63
2020-03-14 17:00:00 16.1 18 Noroeste 33 Sur 0 -- -- 67
2020-03-14 16:00:00 15.8 15 Sur 38 Este 0 -- -- 71
2020-03-14 15:00:00 15.5 18 Sudeste 37 Sudeste 0 -- -- 74
2020-03-14 14:00:00 15.3 17 Sudeste 30 Sudeste 0 -- -- 77
2020-03-14 13:00:00 15.8 23 Sudeste 49 Sudeste 0 -- -- 75
2020-03-14 12:00:00 19.9 13 Sudeste 33 Sudeste 0 -- -- 50
2020-03-14 11:00:00 19.1 12 Sur 25 Oeste 0 -- -- 51
2020-03-14 10:00:00 17.3 13 Noroeste 22 Noroeste 0 -- -- 58
2020-03-14 09:00:00 15.5 9 Oeste 16 Noroeste 0 -- -- 66
2020-03-14 08:00:00 13.1 8 Norte 17 Noroeste 0 -- -- 72
2020-03-14 07:00:00 11.4 11 Norte 16 Norte 0 -- -- 77
2020-03-14 06:00:00 12 11 Norte 18 Noroeste 0 -- -- 75
2020-03-14 05:00:00 12.2 11 Norte 17 Noroeste 0 -- -- 77
2020-03-14 04:00:00 12.8 8 Noroeste 17 Noroeste 0 -- -- 75
2020-03-14 03:00:00 12.7 9 Norte 17 Noroeste 0 -- -- 77
2020-03-14 02:00:00 12.7 11 Norte 16 Noroeste 0 -- -- 77
2020-03-14 01:00:00 13.3 8 Noroeste 18 Noroeste 0 -- -- 77
2020-03-14 00:00:00 13.7 10 Noroeste 17 Noroeste 0 -- -- 79
2020-03-13 23:00:00 14 11 Norte 18 Noroeste 0 -- -- 77
2020-03-13 22:00:00 14.4 7 Noroeste 17 Noroeste 0 -- -- 80
2020-03-13 21:00:00 14.8 13 Noroeste 21 Oeste 0 -- -- 80
2020-03-13 20:00:00 14.9 8 Noroeste 17 Noroeste 0 -- -- 81
2020-03-13 19:00:00 15.2 6 Oeste 22 Sur 0 -- -- 80
2020-03-13 18:00:00 15.9 11 Sudeste 23 Sudeste 0 -- -- 77
2020-03-13 17:00:00 16.5 8 Sur 23 Sudeste 0 -- -- 76
2020-03-13 16:00:00 17.4 12 Sudeste 23 Sudeste 0 -- -- 73
2020-03-13 15:00:00 17.3 17 Sudeste 30 Sudeste 0 -- -- 74
2020-03-13 14:00:00 17.4 16 Sudeste 27 Sudeste 0 -- -- 72
2020-03-13 13:00:00 17 19 Sudeste 31 Sudeste 0 -- -- 76
2020-03-13 12:00:00 18.2 18 Sudeste 29 Sudeste 0 -- -- 70
2020-03-13 11:00:00 17.2 14 Sudeste 24 Sudeste 0 -- -- 74
2020-03-13 10:00:00 17.2 6 Sur 14 Oeste 0 -- -- 69
2020-03-13 09:00:00 15.6 8 Oeste 14 Sudoeste 0 -- -- 78
2020-03-13 08:00:00 12.2 0 Calma 8 Norte 0 -- -- 90
2020-03-13 07:00:00 11.4 0 Calma 8 Norte 0 -- -- 90
2020-03-13 06:00:00 11.3 6 Norte 11 Noroeste 0 -- -- 84
2020-03-13 05:00:00 13.1 9 Noroeste 14 Noroeste 0 -- -- 91
2020-03-13 04:00:00 12 4 Noroeste 10 Noroeste 0 -- -- 89
2020-03-13 03:00:00 12.6 4 Norte 17 Noroeste 0 -- -- 80
2020-03-13 02:00:00 13.8 14 Noroeste 21 Noroeste 0 -- -- 93
2020-03-13 01:00:00 14 9 Oeste 14 Noroeste 0 -- -- 90
2020-03-13 00:00:00 13.5 3 Este 8 Norte 0 -- -- 85
2020-03-12 23:00:00 14.9 0 Calma 9 Sur 0 -- -- 90
2020-03-12 22:00:00 15 3 Sudeste 8 Sur 0 -- -- 93
2020-03-12 21:00:00 15.2 7 Noroeste 12 Noroeste 0 -- -- 91
2020-03-12 20:00:00 15.8 4 Oeste 10 Oeste 0 -- -- 90
2020-03-12 19:00:00 15.9 5 Sudoeste 14 Sudeste 0 -- -- 90
2020-03-12 18:00:00 16.5 10 Sudeste 17 Sudeste 0 -- -- 87
2020-03-12 17:00:00 18 8 Sudeste 17 Sudeste 0 -- -- 80
2020-03-12 16:00:00 19 11 Sudeste 19 Sudeste 0 -- -- 76
2020-03-12 15:00:00 20 10 Sudeste 16 Sudeste 0 -- -- 72
2020-03-12 14:00:00 20.2 9 Sudeste 18 Sudeste 0 -- -- 70
2020-03-12 13:00:00 21.2 10 Sudeste 16 Sur 0 -- -- 65
2020-03-12 12:00:00 24.7 9 Sur 16 Sudeste 0 -- -- 53
2020-03-12 11:00:00 24.5 5 Sur 15 Sudeste 0 -- -- 37
2020-03-12 10:00:00 23 9 Sudeste 13 Sudeste 0 -- -- 40
2020-03-12 09:00:00 19.3 4 Sudeste 8 Sudeste 0 -- -- 68
2020-03-12 08:00:00 19.9 0 Calma 23 Norte 0 -- -- 18
2020-03-12 07:00:00 17.3 19 Norte 22 Norte 0 -- -- 15
2020-03-12 06:00:00 16.9 15 Norte 19 Norte 0 -- -- 16
2020-03-12 05:00:00 16.4 9 Norte 15 Norte 0 -- -- 21
2020-03-12 04:00:00 13.7 10 Noroeste 15 Noroeste 0 -- -- 86
2020-03-12 03:00:00 15 12 Noroeste 24 Norte 0 -- -- 80
2020-03-12 02:00:00 19.6 18 Norte 23 Norte 0 -- -- 14
2020-03-12 01:00:00 20 19 Norte 25 Norte 0 -- -- 12
2020-03-12 00:00:00 20 20 Norte 24 Norte 0 -- -- 12
2020-03-11 23:00:00 20 18 Norte 22 Norte 0 -- -- 12
2020-03-11 22:00:00 20 14 Nordeste 19 Nordeste 0 -- -- 15
2020-03-11 21:00:00 19.6 6 Nordeste 21 Norte 0 -- -- 34
2020-03-11 20:00:00 20.7 13 Norte 18 Norte 0 -- -- 14
2020-03-11 19:00:00 20 3 Norte 8 Norte 0 -- -- 60
2020-03-11 18:00:00 21.2 2 Sudoeste 8 Sur 0 -- -- 64
2020-03-11 17:00:00 20.7 4 Sudeste 10 Sur 0 -- -- 70
2020-03-11 16:00:00 21.1 6 Sudeste 13 Sudeste 0 -- -- 60
2020-03-11 15:00:00 20.6 5 Sudeste 12 Sur 0 -- -- 61
2020-03-11 14:00:00 21 5 Sur 12 Sur 0 -- -- 52
2020-03-11 13:00:00 21.4 6 Sur 11 Sudeste 0 -- -- 47
2020-03-11 12:00:00 21.3 7 Sur 13 Sudeste 0 -- -- 62
2020-03-11 11:00:00 20.8 7 Sudeste 10 Sudeste 0 -- -- 58
2020-03-11 10:00:00 19.9 2 Sudeste 4 Sudeste 0 -- -- 21
2020-03-11 09:00:00 15.4 0 Calma 6 Sur 0 -- -- 37
2020-03-11 08:00:00 12.5 3 Noroeste 5 Nordeste 0 -- -- 65
2020-03-11 07:00:00 11.7 3 Este 6 Sudeste 0 -- -- 74
2020-03-11 06:00:00 12.4 2 Sudeste 4 Sudeste 0 -- -- 69
2020-03-11 05:00:00 15.2 6 Nordeste 14 Norte 0 -- -- 67
2020-03-11 04:00:00 16.4 4 Nordeste 19 Nordeste 0 -- -- 10
2020-03-11 03:00:00 17.3 14 Norte 21 Norte 0 -- -- 7
2020-03-11 02:00:00 16.2 17 Norte 20 Norte 0 -- -- 10
2020-03-11 01:00:00 12.6 2 Este 6 Noroeste 0 -- -- 88
2020-03-11 00:00:00 12.9 3 Noroeste 13 Norte 0 -- -- 81